Airfield :
LOGIN :

Register | Disclaimer

   EN    FR    IT 

 










Legend :    VFR   Marginal VFR   IFR   Intensive IFR   Very Intensive IFR
Visi :
Ceiling :
>= 8 km
>= 3000ft
5 to 8 km
1000 to 3000 ft
1500m to 5 km
500 to 1000 ft
800 to 1500m
200 to 500 ft
< 800m
< 200 ft
Symbols :   Thunderstorms  Fog  Heavy snow  Heavy precipitations  Wind > 20 kt
SIGMETs :     Misc.  Thunderstorms  Icing  Turbulence  Mountain Waves  Volcanic Ashes







- Airport Elevation : 160 ft
- IATA code : FMO


EDDG - Münster Osnabrück Int.

CURRENT METAR :
  • 261150Z 27009KT 9999 FEW014 BKN037 07/05 Q1029 NOSIG

EXPIRED METARs :
  • 261120Z 28013KT 6000 -RA FEW016 BKN020 07/04 Q1029 NOSIG
  • 261050Z 27012KT 9999 -RA FEW020 BKN027 08/04 Q1029 NOSIG
  • 261020Z 25010KT 9999 FEW020 BKN030 07/04 Q1030 NOSIG
  • 260950Z 28006KT 9999 FEW015 BKN019 06/04 Q1030 NOSIG
  • 260920Z 26008KT 9000 -RA BKN019 06/03 Q1030 NOSIG

TAF TAF EDDG
Valid from the 26 at 12:00 until the 27 at 12:00 UTC


261100Z 2612/2712 28010KT 9999 BKN030
BECMG 2621/2624 VRB03KT
BECMG 2700/2703 BKN010
TEMPO 2703/2707 4000 BR BKN007
BECMG 2707/2710 26007KT BKN025
No reported NOTAMs for that airfield.



MET'MAP, your aeronautical weather chart ! - Copyright ORBIFLY December 2007 - Disclaimer

ORBIFLY MET'MAP TEAM :

Programming & Development : Alexandra Zaïnal
Concept & Development : Baudouin d'Aumeries
Co-Development & Prog : Marc-Olivier Méhu
Technical & hardware support : Manuel Goepfert

Contact : metmap@orbifly.com




SOURCES & CREDITS :

   NOAA